createdAt,value
2022-09-25T00:00:39.964Z,0.2
2022-09-25T00:05:39.977Z,0.3
2022-09-25T00:10:39.963Z,0.2
2022-09-25T00:15:41.420Z,0.1
2022-09-25T00:30:40.443Z,0.3
2022-09-25T00:35:40.065Z,0.2
2022-09-25T00:40:39.992Z,0.1
2022-09-25T00:45:40.154Z,0.2
2022-09-25T00:50:40.079Z,0.2
2022-09-25T00:55:40.066Z,0.2
2022-09-25T01:00:40.049Z,0.2
2022-09-25T01:05:40.155Z,0.3
2022-09-25T01:10:40.081Z,0.2
2022-09-25T01:15:40.050Z,0.2
2022-09-25T01:20:40.151Z,0.2
2022-09-25T01:25:40.086Z,0.2
2022-09-25T01:30:40.061Z,0.2
2022-09-25T01:35:40.135Z,0.2
2022-09-25T01:40:40.196Z,0.2
2022-09-25T01:45:44.544Z,0.2
2022-09-25T01:50:40.149Z,0.2
2022-09-25T01:55:40.287Z,0.2
2022-09-25T02:00:40.096Z,0.2
2022-09-25T02:05:40.158Z,0.3
2022-09-25T02:15:40.013Z,0.2
2022-09-25T02:20:40.057Z,0.2
2022-09-25T02:25:40.082Z,0.2
2022-09-25T02:30:40.036Z,0.1
2022-09-25T02:35:40.034Z,0.2
2022-09-25T02:40:40.068Z,0.2
2022-09-25T02:45:40.039Z,0.2
2022-09-25T02:50:40.087Z,0.2
2022-09-25T02:55:40.058Z,0.2
2022-09-25T03:00:40.064Z,0.2
2022-09-25T03:05:40.010Z,0.2
2022-09-25T03:10:40.032Z,0.1
2022-09-25T03:15:40.027Z,0.2
2022-09-25T03:20:40.006Z,0.2
2022-09-25T03:25:40.027Z,0.2
2022-09-25T03:30:40.025Z,0.2
2022-09-25T03:35:40.109Z,0.2
2022-09-25T03:40:42.739Z,0.1
2022-09-25T03:45:40.079Z,0.3
2022-09-25T03:50:40.056Z,0.2
2022-09-25T03:55:40.067Z,0.2
2022-09-25T04:00:40.042Z,0.2
2022-09-25T04:05:40.172Z,0.2
2022-09-25T04:10:40.077Z,0.2
2022-09-25T04:15:40.048Z,0.2
2022-09-25T04:20:40.044Z,0.2
2022-09-25T04:25:40.114Z,0.2
2022-09-25T04:30:40.072Z,0.2
2022-09-25T04:35:40.029Z,0.2
2022-09-25T04:40:41.561Z,0.1
2022-09-25T04:45:40.019Z,0.2
2022-09-25T04:50:40.062Z,0.2
2022-09-25T04:55:40.006Z,0.2
2022-09-25T05:00:39.990Z,0.2
2022-09-25T05:05:40.036Z,0.2
2022-09-25T05:10:40.026Z,0.3
2022-09-25T05:15:40.021Z,0.3
2022-09-25T05:20:40.042Z,0.3
2022-09-25T05:25:40.035Z,0.3
2022-09-25T05:30:40.083Z,0.4
2022-09-25T05:35:40.050Z,0.4
2022-09-25T05:40:40.186Z,0.5
2022-09-25T05:45:40.017Z,0.5
2022-09-25T05:50:40.052Z,0.6
2022-09-25T05:55:40.045Z,0.6
2022-09-25T06:00:40.091Z,0.5
2022-09-25T06:05:40.081Z,0.7
2022-09-25T06:10:40.102Z,0.8
2022-09-25T06:15:40.082Z,0.6
2022-09-25T06:20:40.076Z,0.7
2022-09-25T06:25:40.049Z,0.9
2022-09-25T06:30:40.040Z,0.11
2022-09-25T06:35:40.103Z,0.13
2022-09-25T06:40:41.366Z,0.12
2022-09-25T06:45:40.106Z,0.11
2022-09-25T06:50:40.122Z,0.13
2022-09-25T06:55:40.098Z,0.15
2022-09-25T07:00:40.170Z,0.12
2022-09-25T07:05:40.104Z,0.14
2022-09-25T07:10:45.720Z,0.2
2022-09-25T07:15:40.149Z,0.21
2022-09-25T07:20:40.079Z,0.24
2022-09-25T07:25:40.133Z,0.24
2022-09-25T07:30:40.192Z,0.18
2022-09-25T07:35:40.151Z,0.19
2022-09-25T07:40:40.128Z,0.19
2022-09-25T07:45:40.106Z,0.13
2022-09-25T07:50:40.080Z,0.18
2022-09-25T07:55:40.161Z,0.18
2022-09-25T08:00:40.341Z,0.2
2022-09-25T08:05:40.131Z,0.21
2022-09-25T08:10:40.106Z,0.18
2022-09-25T08:15:40.141Z,0.16
2022-09-25T08:20:40.167Z,0.17
2022-09-25T08:25:40.146Z,0.23
2022-09-25T08:30:40.208Z,0.21
2022-09-25T08:35:40.120Z,0.27
2022-09-25T08:40:46.335Z,0.39
2022-09-25T08:45:40.041Z,0.51
2022-09-25T08:50:41.313Z,1.9
2022-09-25T08:55:42.765Z,1.22
2022-09-25T09:00:40.211Z,0.83
2022-09-25T09:05:40.159Z,1.54
2022-09-25T09:10:40.158Z,3.13
2022-09-25T09:15:40.161Z,1.16
2022-09-25T09:20:40.191Z,1.1
2022-09-25T09:25:40.168Z,1.3
2022-09-25T09:30:40.157Z,1.46
2022-09-25T09:35:40.590Z,0.9
2022-09-25T09:40:40.183Z,0.71
2022-09-25T09:45:40.148Z,0.64
2022-09-25T09:50:44.532Z,0.78
2022-09-25T09:55:40.126Z,0.74
2022-09-25T10:00:40.113Z,0.99
2022-09-25T10:05:40.222Z,0.58
2022-09-25T10:10:40.140Z,0.42
2022-09-25T10:15:40.265Z,0.29
2022-09-25T10:20:40.156Z,0.27
2022-09-25T10:25:40.170Z,0.66
2022-09-25T10:30:40.160Z,0.86
2022-09-25T10:35:40.133Z,0.54
2022-09-25T10:40:40.201Z,0.39
2022-09-25T10:45:40.133Z,0.25
2022-09-25T10:50:40.177Z,0.3
2022-09-25T10:55:40.162Z,0.2
2022-09-25T11:00:40.118Z,0.16
2022-09-25T11:05:40.168Z,0.29
2022-09-25T11:10:40.181Z,0.37
2022-09-25T11:15:40.113Z,0.81
2022-09-25T11:20:40.153Z,0.34
2022-09-25T11:25:40.126Z,0.62
2022-09-25T11:30:40.199Z,0.57
2022-09-25T11:35:40.185Z,0.57
2022-09-25T11:40:40.240Z,0.47
2022-09-25T11:45:40.175Z,0.41
2022-09-25T11:50:40.203Z,0.48
2022-09-25T11:55:43.766Z,0.4
2022-09-25T12:00:40.161Z,0.21
2022-09-25T12:05:40.211Z,0.13
2022-09-25T12:10:40.982Z,0.11
2022-09-25T12:15:40.127Z,0.9
2022-09-25T12:20:40.164Z,0.9
2022-09-25T12:25:40.218Z,0.9
2022-09-25T12:30:40.217Z,0.1
2022-09-25T12:35:40.165Z,0.11
2022-09-25T12:40:40.241Z,0.13
2022-09-25T12:45:40.213Z,0.12
2022-09-25T12:50:40.247Z,0.11
2022-09-25T12:55:40.279Z,0.13
2022-09-25T13:00:40.183Z,0.19
2022-09-25T13:05:40.220Z,0.14
2022-09-25T13:10:40.205Z,0.1
2022-09-25T13:15:40.326Z,0.13
2022-09-25T13:20:40.239Z,0.15
2022-09-25T13:25:40.216Z,0.23
2022-09-25T13:30:40.253Z,0.15
2022-09-25T13:35:40.236Z,0.1
2022-09-25T13:40:41.741Z,0.18
2022-09-25T13:45:40.208Z,0.23
2022-09-25T13:50:40.293Z,0.25
2022-09-25T13:55:40.201Z,0.21
2022-09-25T14:00:40.201Z,0.25
2022-09-25T14:05:40.220Z,0.17
2022-09-25T14:10:40.354Z,0.12
2022-09-25T14:15:40.170Z,0.2
2022-09-25T14:20:40.216Z,0.11
2022-09-25T14:25:40.229Z,0.8
2022-09-25T14:30:40.197Z,0.4
2022-09-25T14:35:40.240Z,0.4
2022-09-25T14:40:40.330Z,0.4
2022-09-25T14:45:40.233Z,0.4
2022-09-25T14:50:40.235Z,0.5
2022-09-25T14:55:40.194Z,0.6
2022-09-25T15:00:40.230Z,0.19
2022-09-25T15:05:40.194Z,0.23
2022-09-25T15:10:40.213Z,0.15
2022-09-25T15:15:40.224Z,0.12
2022-09-25T15:20:40.245Z,0.11
2022-09-25T15:25:40.215Z,0.13
2022-09-25T15:30:40.276Z,0.11
2022-09-25T15:35:40.219Z,0.11
2022-09-25T15:40:41.399Z,0.13
2022-09-25T15:45:42.083Z,0.13
2022-09-25T15:50:40.373Z,0.13
2022-09-25T15:55:40.226Z,0.6
2022-09-25T16:00:40.223Z,0.6
2022-09-25T16:05:40.247Z,0.5
2022-09-25T16:10:40.287Z,0.5
2022-09-25T16:15:40.232Z,0.4
2022-09-25T16:20:40.276Z,0.5
2022-09-25T16:25:40.242Z,0.5
2022-09-25T16:30:40.240Z,0.5
2022-09-25T16:36:09.217Z,0.5
2022-09-25T16:40:40.307Z,0.3
2022-09-25T16:45:40.241Z,0.4
2022-09-25T16:50:40.248Z,0.3
2022-09-25T16:55:40.267Z,0.2
2022-09-25T17:00:40.229Z,0.2
2022-09-25T17:05:40.252Z,0.2
2022-09-25T17:10:40.277Z,0.2
2022-09-25T17:15:40.247Z,0.2
2022-09-25T17:20:40.292Z,0.2
2022-09-25T17:25:40.249Z,0.2
2022-09-25T17:30:40.461Z,0.1
2022-09-25T17:35:40.276Z,0.2
2022-09-25T17:40:40.300Z,0.2
2022-09-25T17:45:40.278Z,0.2
2022-09-25T17:50:40.368Z,0.2
2022-09-25T17:55:40.240Z,0.2
2022-09-25T18:00:40.916Z,0.2
2022-09-25T18:05:40.305Z,0.1
2022-09-25T18:10:40.295Z,0.2
2022-09-25T18:15:40.494Z,0.2
2022-09-25T18:20:40.356Z,0.1
2022-09-25T18:25:40.379Z,0.2
2022-09-25T18:30:40.291Z,0.2
2022-09-25T18:35:40.287Z,0.3
2022-09-25T18:45:45.270Z,0.2
2022-09-25T18:50:44.319Z,0.2
2022-09-25T18:55:44.313Z,0.2
2022-09-25T19:00:44.315Z,0.3
2022-09-25T19:05:44.280Z,0.2
2022-09-25T19:10:44.331Z,0.1
2022-09-25T19:15:44.317Z,0.2
2022-09-25T19:20:44.299Z,0.2
2022-09-25T19:25:44.310Z,0.2
2022-09-25T19:30:44.335Z,0.2
2022-09-25T19:35:44.319Z,0.2
2022-09-25T19:40:44.345Z,0.2
2022-09-25T19:45:44.303Z,0.2
2022-09-25T19:50:44.317Z,0.2
2022-09-25T19:55:44.328Z,0.1
2022-09-25T20:00:44.282Z,0.2
2022-09-25T20:05:44.481Z,0.2
2022-09-25T20:10:44.314Z,0.2
2022-09-25T20:15:44.339Z,0.2
2022-09-25T20:20:44.323Z,0.2
2022-09-25T20:25:44.611Z,0.2
